Higden, Arkansas
Current Conditions -  °F | °C
As of 2:15 AM on Sunday 26 Oct 2014 (Local Time) from KBVX Reporting Station
Clear Clear  
Wind Chill: 63°   Ceiling: Unl
Heat Index: 63°   Visibility: 9mi
Dew Point: 59°   Wind: 0mph
Humidity: 88%   Direction: NA
Pressure: 29.99"   Gusts: NA
Location:  35.57°N, 92.2°W
Report Text: KBVX 260715Z AUTO 00000KT 9SM CLR 17/15 A2999 RMK AO1
Loading
Personal Weather Stations






























Interactive Weather Map
Tropical Storm Tracking
New forecast layout! Learn more

10-Day Weather Forecast

Advertisements
Track Severe Weather on mobile